sensor_id;sensor_type;location;lat;lon;timestamp;P1;durP1;ratioP1;P2;durP2;ratioP2
16826;SDS011;8530;49.540;8.576;2022-08-14T00:02:10;5.17;;;4.67;;
16826;SDS011;8530;49.540;8.576;2022-08-14T00:04:37;4.80;;;4.40;;
16826;SDS011;8530;49.540;8.576;2022-08-14T00:07:04;5.37;;;4.87;;
16826;SDS011;8530;49.540;8.576;2022-08-14T00:09:31;5.17;;;4.70;;
16826;SDS011;8530;49.540;8.576;2022-08-14T00:11:58;6.23;;;4.90;;
16826;SDS011;8530;49.540;8.576;2022-08-14T00:14:25;7.47;;;5.20;;
16826;SDS011;8530;49.540;8.576;2022-08-14T00:16:52;5.70;;;5.20;;
16826;SDS011;8530;49.540;8.576;2022-08-14T00:19:21;5.40;;;4.90;;
16826;SDS011;8530;49.540;8.576;2022-08-14T00:21:48;7.80;;;5.60;;
16826;SDS011;8530;49.540;8.576;2022-08-14T00:24:15;6.30;;;4.87;;
16826;SDS011;8530;49.540;8.576;2022-08-14T00:26:42;5.30;;;4.80;;
16826;SDS011;8530;49.540;8.576;2022-08-14T00:29:09;5.67;;;5.07;;
16826;SDS011;8530;49.540;8.576;2022-08-14T00:31:36;6.53;;;4.73;;
16826;SDS011;8530;49.540;8.576;2022-08-14T00:34:03;5.03;;;4.53;;
16826;SDS011;8530;49.540;8.576;2022-08-14T00:36:31;6.63;;;4.90;;
16826;SDS011;8530;49.540;8.576;2022-08-14T00:38:58;5.50;;;4.93;;
16826;SDS011;8530;49.540;8.576;2022-08-14T00:41:28;5.37;;;4.83;;
16826;SDS011;8530;49.540;8.576;2022-08-14T00:43:56;6.00;;;4.70;;
16826;SDS011;8530;49.540;8.576;2022-08-14T00:46:23;5.73;;;4.50;;
16826;SDS011;8530;49.540;8.576;2022-08-14T00:48:50;5.77;;;5.27;;
16826;SDS011;8530;49.540;8.576;2022-08-14T00:51:17;9.37;;;4.43;;
16826;SDS011;8530;49.540;8.576;2022-08-14T00:53:47;6.90;;;5.33;;
16826;SDS011;8530;49.540;8.576;2022-08-14T00:56:15;8.27;;;5.77;;
16826;SDS011;8530;49.540;8.576;2022-08-14T00:58:43;7.63;;;5.50;;
16826;SDS011;8530;49.540;8.576;2022-08-14T01:01:11;5.30;;;4.80;;
16826;SDS011;8530;49.540;8.576;2022-08-14T01:03:39;7.27;;;5.13;;
16826;SDS011;8530;49.540;8.576;2022-08-14T01:06:07;5.43;;;5.00;;
16826;SDS011;8530;49.540;8.576;2022-08-14T01:08:35;7.80;;;4.97;;
16826;SDS011;8530;49.540;8.576;2022-08-14T01:11:05;6.40;;;5.60;;
16826;SDS011;8530;49.540;8.576;2022-08-14T01:13:35;7.20;;;5.53;;
16826;SDS011;8530;49.540;8.576;2022-08-14T01:16:05;6.40;;;5.80;;
16826;SDS011;8530;49.540;8.576;2022-08-14T01:18:33;5.73;;;5.20;;
16826;SDS011;8530;49.540;8.576;2022-08-14T01:21:22;5.20;;;4.70;;
16826;SDS011;8530;49.540;8.576;2022-08-14T01:23:49;9.77;;;5.20;;
16826;SDS011;8530;49.540;8.576;2022-08-14T01:26:19;5.90;;;5.30;;
16826;SDS011;8530;49.540;8.576;2022-08-14T01:28:47;6.23;;;5.00;;
16826;SDS011;8530;49.540;8.576;2022-08-14T01:31:20;6.30;;;5.17;;
16826;SDS011;8530;49.540;8.576;2022-08-14T01:33:49;4.40;;;4.00;;
16826;SDS011;8530;49.540;8.576;2022-08-14T01:36:22;4.87;;;4.40;;
16826;SDS011;8530;49.540;8.576;2022-08-14T01:38:51;7.07;;;5.30;;
16826;SDS011;8530;49.540;8.576;2022-08-14T01:41:21;6.13;;;5.57;;
16826;SDS011;8530;49.540;8.576;2022-08-14T01:43:50;5.77;;;5.17;;
16826;SDS011;8530;49.540;8.576;2022-08-14T01:46:20;6.17;;;5.57;;
16826;SDS011;8530;49.540;8.576;2022-08-14T01:48:49;8.20;;;7.40;;
16826;SDS011;8530;49.540;8.576;2022-08-14T01:51:18;10.37;;;7.40;;
16826;SDS011;8530;49.540;8.576;2022-08-14T01:53:49;7.00;;;6.30;;
16826;SDS011;8530;49.540;8.576;2022-08-14T01:56:18;11.70;;;8.00;;
16826;SDS011;8530;49.540;8.576;2022-08-14T01:58:47;12.93;;;7.50;;
16826;SDS011;8530;49.540;8.576;2022-08-14T02:01:16;11.70;;;7.80;;
16826;SDS011;8530;49.540;8.576;2022-08-14T02:03:44;7.83;;;7.00;;
16826;SDS011;8530;49.540;8.576;2022-08-14T02:06:12;9.60;;;6.70;;
16826;SDS011;8530;49.540;8.576;2022-08-14T02:08:39;7.00;;;6.30;;
16826;SDS011;8530;49.540;8.576;2022-08-14T02:11:09;9.17;;;7.23;;
16826;SDS011;8530;49.540;8.576;2022-08-14T02:13:43;8.10;;;7.00;;
16826;SDS011;8530;49.540;8.576;2022-08-14T02:16:10;7.73;;;6.93;;
16826;SDS011;8530;49.540;8.576;2022-08-14T02:18:37;6.43;;;5.93;;
16826;SDS011;8530;49.540;8.576;2022-08-14T02:21:04;8.33;;;7.40;;
16826;SDS011;8530;49.540;8.576;2022-08-14T02:23:31;7.80;;;7.10;;
16826;SDS011;8530;49.540;8.576;2022-08-14T02:25:58;7.20;;;6.60;;
16826;SDS011;8530;49.540;8.576;2022-08-14T02:28:27;6.97;;;6.40;;
16826;SDS011;8530;49.540;8.576;2022-08-14T02:30:55;7.93;;;7.10;;
16826;SDS011;8530;49.540;8.576;2022-08-14T02:33:22;7.70;;;6.90;;
16826;SDS011;8530;49.540;8.576;2022-08-14T02:35:49;8.30;;;7.07;;
16826;SDS011;8530;49.540;8.576;2022-08-14T02:38:16;7.33;;;6.50;;
16826;SDS011;8530;49.540;8.576;2022-08-14T02:40:42;9.37;;;6.10;;
16826;SDS011;8530;49.540;8.576;2022-08-14T02:43:09;7.70;;;6.50;;
16826;SDS011;8530;49.540;8.576;2022-08-14T02:45:39;13.80;;;6.60;;
16826;SDS011;8530;49.540;8.576;2022-08-14T02:48:05;6.53;;;5.90;;
16826;SDS011;8530;49.540;8.576;2022-08-14T02:50:34;8.83;;;6.23;;
16826;SDS011;8530;49.540;8.576;2022-08-14T02:53:06;8.70;;;7.47;;
16826;SDS011;8530;49.540;8.576;2022-08-14T02:55:32;8.73;;;6.60;;
16826;SDS011;8530;49.540;8.576;2022-08-14T02:57:59;7.80;;;6.40;;
16826;SDS011;8530;49.540;8.576;2022-08-14T03:00:26;9.50;;;7.30;;
16826;SDS011;8530;49.540;8.576;2022-08-14T03:02:54;11.63;;;6.70;;
16826;SDS011;8530;49.540;8.576;2022-08-14T03:05:21;7.17;;;6.47;;
16826;SDS011;8530;49.540;8.576;2022-08-14T03:07:48;8.17;;;6.57;;
16826;SDS011;8530;49.540;8.576;2022-08-14T03:10:15;8.90;;;7.63;;
16826;SDS011;8530;49.540;8.576;2022-08-14T03:12:42;9.33;;;6.97;;
16826;SDS011;8530;49.540;8.576;2022-08-14T03:15:08;11.83;;;7.40;;
16826;SDS011;8530;49.540;8.576;2022-08-14T03:17:38;9.60;;;7.60;;
16826;SDS011;8530;49.540;8.576;2022-08-14T03:20:08;9.30;;;7.40;;
16826;SDS011;8530;49.540;8.576;2022-08-14T03:22:35;9.60;;;7.70;;
16826;SDS011;8530;49.540;8.576;2022-08-14T03:25:02;11.60;;;9.00;;
16826;SDS011;8530;49.540;8.576;2022-08-14T03:27:29;13.10;;;8.23;;
16826;SDS011;8530;49.540;8.576;2022-08-14T03:29:56;14.40;;;11.13;;
16826;SDS011;8530;49.540;8.576;2022-08-14T03:32:22;25.13;;;10.30;;
16826;SDS011;8530;49.540;8.576;2022-08-14T03:34:49;13.20;;;10.80;;
16826;SDS011;8530;49.540;8.576;2022-08-14T03:37:17;15.00;;;11.93;;
16826;SDS011;8530;49.540;8.576;2022-08-14T03:39:44;15.33;;;10.60;;
16826;SDS011;8530;49.540;8.576;2022-08-14T03:42:11;15.70;;;10.77;;
16826;SDS011;8530;49.540;8.576;2022-08-14T03:44:38;14.03;;;11.50;;
16826;SDS011;8530;49.540;8.576;2022-08-14T03:47:06;16.63;;;13.40;;
16826;SDS011;8530;49.540;8.576;2022-08-14T03:49:33;18.70;;;14.40;;
16826;SDS011;8530;49.540;8.576;2022-08-14T03:52:00;17.70;;;14.27;;
16826;SDS011;8530;49.540;8.576;2022-08-14T03:54:30;21.27;;;15.83;;
16826;SDS011;8530;49.540;8.576;2022-08-14T03:57:00;24.73;;;17.77;;
16826;SDS011;8530;49.540;8.576;2022-08-14T03:59:26;19.87;;;16.37;;
16826;SDS011;8530;49.540;8.576;2022-08-14T04:01:53;21.73;;;15.50;;
16826;SDS011;8530;49.540;8.576;2022-08-14T04:04:20;17.90;;;14.77;;
16826;SDS011;8530;49.540;8.576;2022-08-14T04:06:46;16.13;;;14.03;;
16826;SDS011;8530;49.540;8.576;2022-08-14T04:09:15;21.00;;;15.33;;
16826;SDS011;8530;49.540;8.576;2022-08-14T04:11:43;20.97;;;14.10;;
16826;SDS011;8530;49.540;8.576;2022-08-14T04:14:10;16.63;;;13.50;;
16826;SDS011;8530;49.540;8.576;2022-08-14T04:16:38;19.73;;;12.80;;
16826;SDS011;8530;49.540;8.576;2022-08-14T04:19:12;20.77;;;15.80;;
16826;SDS011;8530;49.540;8.576;2022-08-14T04:21:43;17.73;;;14.60;;
16826;SDS011;8530;49.540;8.576;2022-08-14T04:24:10;18.40;;;13.60;;
16826;SDS011;8530;49.540;8.576;2022-08-14T04:26:38;18.70;;;14.70;;
16826;SDS011;8530;49.540;8.576;2022-08-14T04:29:06;19.87;;;15.17;;
16826;SDS011;8530;49.540;8.576;2022-08-14T04:31:33;17.97;;;15.13;;
16826;SDS011;8530;49.540;8.576;2022-08-14T04:34:01;19.17;;;14.50;;
16826;SDS011;8530;49.540;8.576;2022-08-14T04:36:29;18.70;;;14.60;;
16826;SDS011;8530;49.540;8.576;2022-08-14T04:38:56;22.50;;;14.43;;
16826;SDS011;8530;49.540;8.576;2022-08-14T04:41:40;16.73;;;14.03;;
16826;SDS011;8530;49.540;8.576;2022-08-14T04:44:26;17.10;;;13.23;;
16826;SDS011;8530;49.540;8.576;2022-08-14T04:46:52;15.07;;;13.43;;
16826;SDS011;8530;49.540;8.576;2022-08-14T04:49:37;19.70;;;16.50;;
16826;SDS011;8530;49.540;8.576;2022-08-14T04:52:06;18.80;;;15.60;;
16826;SDS011;8530;49.540;8.576;2022-08-14T04:54:33;16.23;;;14.33;;
16826;SDS011;8530;49.540;8.576;2022-08-14T04:57:00;17.00;;;14.80;;
16826;SDS011;8530;49.540;8.576;2022-08-14T04:59:28;24.20;;;16.30;;
16826;SDS011;8530;49.540;8.576;2022-08-14T05:01:54;18.70;;;16.10;;
16826;SDS011;8530;49.540;8.576;2022-08-14T05:04:22;16.33;;;14.07;;
16826;SDS011;8530;49.540;8.576;2022-08-14T05:06:49;17.83;;;14.17;;
16826;SDS011;8530;49.540;8.576;2022-08-14T05:09:17;22.10;;;14.73;;
16826;SDS011;8530;49.540;8.576;2022-08-14T05:11:43;16.10;;;14.40;;
16826;SDS011;8530;49.540;8.576;2022-08-14T05:14:11;27.77;;;16.10;;
16826;SDS011;8530;49.540;8.576;2022-08-14T05:16:39;17.47;;;14.87;;
16826;SDS011;8530;49.540;8.576;2022-08-14T05:19:06;25.33;;;17.80;;
16826;SDS011;8530;49.540;8.576;2022-08-14T05:21:38;19.10;;;14.80;;
16826;SDS011;8530;49.540;8.576;2022-08-14T05:24:05;18.37;;;16.27;;
16826;SDS011;8530;49.540;8.576;2022-08-14T05:26:31;25.10;;;15.47;;
16826;SDS011;8530;49.540;8.576;2022-08-14T05:28:58;20.13;;;13.77;;
16826;SDS011;8530;49.540;8.576;2022-08-14T05:31:25;28.53;;;17.00;;
16826;SDS011;8530;49.540;8.576;2022-08-14T05:33:53;18.07;;;14.43;;
16826;SDS011;8530;49.540;8.576;2022-08-14T05:36:20;16.53;;;13.30;;
16826;SDS011;8530;49.540;8.576;2022-08-14T05:38:47;17.00;;;13.70;;
16826;SDS011;8530;49.540;8.576;2022-08-14T05:41:15;15.90;;;12.93;;
16826;SDS011;8530;49.540;8.576;2022-08-14T05:43:44;15.00;;;13.37;;
16826;SDS011;8530;49.540;8.576;2022-08-14T05:46:13;15.93;;;12.93;;
16826;SDS011;8530;49.540;8.576;2022-08-14T05:48:45;17.70;;;13.90;;
16826;SDS011;8530;49.540;8.576;2022-08-14T05:51:14;12.30;;;11.00;;
16826;SDS011;8530;49.540;8.576;2022-08-14T05:53:41;15.23;;;12.30;;
16826;SDS011;8530;49.540;8.576;2022-08-14T05:56:08;13.80;;;12.43;;
16826;SDS011;8530;49.540;8.576;2022-08-14T05:58:35;12.70;;;11.30;;
16826;SDS011;8530;49.540;8.576;2022-08-14T06:01:01;10.53;;;9.27;;
16826;SDS011;8530;49.540;8.576;2022-08-14T06:03:28;13.40;;;10.10;;
16826;SDS011;8530;49.540;8.576;2022-08-14T06:05:55;12.80;;;10.23;;
16826;SDS011;8530;49.540;8.576;2022-08-14T06:08:25;12.10;;;9.47;;
16826;SDS011;8530;49.540;8.576;2022-08-14T06:10:53;13.43;;;9.90;;
16826;SDS011;8530;49.540;8.576;2022-08-14T06:13:26;10.40;;;9.40;;
16826;SDS011;8530;49.540;8.576;2022-08-14T06:15:53;8.67;;;7.77;;
16826;SDS011;8530;49.540;8.576;2022-08-14T06:18:20;9.67;;;8.20;;
16826;SDS011;8530;49.540;8.576;2022-08-14T06:20:47;9.80;;;8.27;;
16826;SDS011;8530;49.540;8.576;2022-08-14T06:23:13;9.07;;;7.83;;
16826;SDS011;8530;49.540;8.576;2022-08-14T06:25:41;8.87;;;7.77;;
16826;SDS011;8530;49.540;8.576;2022-08-14T06:28:14;8.57;;;7.78;;
16826;SDS011;8530;49.540;8.576;2022-08-14T06:30:41;9.02;;;7.55;;
16826;SDS011;8530;49.540;8.576;2022-08-14T06:33:08;7.90;;;7.20;;
16826;SDS011;8530;49.540;8.576;2022-08-14T06:35:34;7.43;;;6.70;;
16826;SDS011;8530;49.540;8.576;2022-08-14T06:38:01;7.80;;;6.25;;
16826;SDS011;8530;49.540;8.576;2022-08-14T06:40:29;6.32;;;5.57;;
16826;SDS011;8530;49.540;8.576;2022-08-14T06:42:59;6.60;;;5.30;;
16826;SDS011;8530;49.540;8.576;2022-08-14T06:45:27;8.57;;;6.28;;
16826;SDS011;8530;49.540;8.576;2022-08-14T06:47:54;12.82;;;6.70;;
16826;SDS011;8530;49.540;8.576;2022-08-14T06:50:22;6.53;;;5.80;;
16826;SDS011;8530;49.540;8.576;2022-08-14T06:52:51;5.15;;;4.38;;
16826;SDS011;8530;49.540;8.576;2022-08-14T06:55:17;5.45;;;4.95;;
16826;SDS011;8530;49.540;8.576;2022-08-14T06:57:45;5.82;;;5.32;;
16826;SDS011;8530;49.540;8.576;2022-08-14T07:00:14;6.05;;;5.40;;
16826;SDS011;8530;49.540;8.576;2022-08-14T07:02:43;5.18;;;4.68;;
16826;SDS011;8530;49.540;8.576;2022-08-14T07:05:28;5.45;;;5.05;;
16826;SDS011;8530;49.540;8.576;2022-08-14T07:08:14;5.85;;;5.00;;
16826;SDS011;8530;49.540;8.576;2022-08-14T07:10:43;5.22;;;4.72;;
16826;SDS011;8530;49.540;8.576;2022-08-14T07:13:10;4.80;;;4.40;;
16826;SDS011;8530;49.540;8.576;2022-08-14T07:15:40;4.55;;;4.10;;
16826;SDS011;8530;49.540;8.576;2022-08-14T07:18:07;5.15;;;4.75;;
16826;SDS011;8530;49.540;8.576;2022-08-14T07:20:35;4.18;;;3.78;;
16826;SDS011;8530;49.540;8.576;2022-08-14T07:23:03;4.55;;;4.15;;
16826;SDS011;8530;49.540;8.576;2022-08-14T07:25:31;5.65;;;4.43;;
16826;SDS011;8530;49.540;8.576;2022-08-14T07:27:58;4.20;;;3.80;;
16826;SDS011;8530;49.540;8.576;2022-08-14T07:30:25;7.38;;;4.13;;
16826;SDS011;8530;49.540;8.576;2022-08-14T07:32:53;5.22;;;4.50;;
16826;SDS011;8530;49.540;8.576;2022-08-14T07:35:20;4.28;;;3.97;;
16826;SDS011;8530;49.540;8.576;2022-08-14T07:37:47;8.00;;;4.20;;
16826;SDS011;8530;49.540;8.576;2022-08-14T07:40:14;4.20;;;3.80;;
16826;SDS011;8530;49.540;8.576;2022-08-14T07:42:41;5.45;;;4.07;;
16826;SDS011;8530;49.540;8.576;2022-08-14T07:45:08;4.57;;;4.28;;
16826;SDS011;8530;49.540;8.576;2022-08-14T07:47:37;4.30;;;4.00;;
16826;SDS011;8530;49.540;8.576;2022-08-14T07:50:10;4.47;;;4.18;;
16826;SDS011;8530;49.540;8.576;2022-08-14T07:52:39;6.70;;;5.18;;
16826;SDS011;8530;49.540;8.576;2022-08-14T07:55:07;6.85;;;4.10;;
16826;SDS011;8530;49.540;8.576;2022-08-14T07:57:34;4.28;;;3.97;;
16826;SDS011;8530;49.540;8.576;2022-08-14T08:00:02;5.47;;;3.63;;
16826;SDS011;8530;49.540;8.576;2022-08-14T08:02:32;4.07;;;3.67;;
16826;SDS011;8530;49.540;8.576;2022-08-14T08:05:00;5.15;;;3.72;;
16826;SDS011;8530;49.540;8.576;2022-08-14T08:07:29;6.28;;;3.65;;
16826;SDS011;8530;49.540;8.576;2022-08-14T08:09:57;3.83;;;3.53;;
16826;SDS011;8530;49.540;8.576;2022-08-14T08:12:24;4.10;;;3.50;;
16826;SDS011;8530;49.540;8.576;2022-08-14T08:14:51;5.28;;;4.13;;
16826;SDS011;8530;49.540;8.576;2022-08-14T08:17:18;4.53;;;3.97;;
16826;SDS011;8530;49.540;8.576;2022-08-14T08:19:46;3.65;;;3.35;;
16826;SDS011;8530;49.540;8.576;2022-08-14T08:22:14;8.48;;;4.20;;
16826;SDS011;8530;49.540;8.576;2022-08-14T08:24:42;4.72;;;3.78;;
16826;SDS011;8530;49.540;8.576;2022-08-14T08:27:15;3.95;;;3.58;;
16826;SDS011;8530;49.540;8.576;2022-08-14T08:29:43;4.15;;;3.85;;
16826;SDS011;8530;49.540;8.576;2022-08-14T08:32:10;4.68;;;3.75;;
16826;SDS011;8530;49.540;8.576;2022-08-14T08:34:43;3.95;;;3.55;;
16826;SDS011;8530;49.540;8.576;2022-08-14T08:37:12;6.63;;;3.58;;
16826;SDS011;8530;49.540;8.576;2022-08-14T08:39:45;4.22;;;3.83;;
16826;SDS011;8530;49.540;8.576;2022-08-14T08:42:12;4.00;;;3.60;;
16826;SDS011;8530;49.540;8.576;2022-08-14T08:44:52;5.30;;;4.15;;
16826;SDS011;8530;49.540;8.576;2022-08-14T08:47:19;7.70;;;3.70;;
16826;SDS011;8530;49.540;8.576;2022-08-14T08:49:46;7.70;;;3.95;;
16826;SDS011;8530;49.540;8.576;2022-08-14T08:52:12;3.72;;;3.42;;
16826;SDS011;8530;49.540;8.576;2022-08-14T08:54:39;5.45;;;4.45;;
16826;SDS011;8530;49.540;8.576;2022-08-14T08:57:11;5.40;;;4.43;;
16826;SDS011;8530;49.540;8.576;2022-08-14T08:59:37;5.80;;;4.57;;
16826;SDS011;8530;49.540;8.576;2022-08-14T09:02:05;6.80;;;4.68;;
16826;SDS011;8530;49.540;8.576;2022-08-14T09:04:35;9.88;;;5.00;;
16826;SDS011;8530;49.540;8.576;2022-08-14T09:07:04;7.15;;;4.45;;
16826;SDS011;8530;49.540;8.576;2022-08-14T09:09:31;6.30;;;4.03;;
16826;SDS011;8530;49.540;8.576;2022-08-14T09:11:59;5.75;;;5.15;;
16826;SDS011;8530;49.540;8.576;2022-08-14T09:14:32;5.85;;;4.32;;
16826;SDS011;8530;49.540;8.576;2022-08-14T09:17:00;5.53;;;4.40;;
16826;SDS011;8530;49.540;8.576;2022-08-14T09:19:27;5.53;;;5.07;;
16826;SDS011;8530;49.540;8.576;2022-08-14T09:21:54;6.10;;;5.40;;
16826;SDS011;8530;49.540;8.576;2022-08-14T09:24:20;7.10;;;5.68;;
16826;SDS011;8530;49.540;8.576;2022-08-14T09:26:47;6.15;;;4.18;;
16826;SDS011;8530;49.540;8.576;2022-08-14T09:29:14;5.22;;;4.72;;
16826;SDS011;8530;49.540;8.576;2022-08-14T09:31:44;6.53;;;4.07;;
16826;SDS011;8530;49.540;8.576;2022-08-14T09:34:17;4.80;;;4.18;;
16826;SDS011;8530;49.540;8.576;2022-08-14T09:36:56;4.65;;;4.25;;
16826;SDS011;8530;49.540;8.576;2022-08-14T09:39:40;11.02;;;4.90;;
16826;SDS011;8530;49.540;8.576;2022-08-14T09:42:21;4.90;;;4.47;;
16826;SDS011;8530;49.540;8.576;2022-08-14T09:47:49;5.20;;;4.70;;
16826;SDS011;8530;49.540;8.576;2022-08-14T09:50:19;5.70;;;4.40;;
16826;SDS011;8530;49.540;8.576;2022-08-14T09:52:48;4.40;;;4.00;;
16826;SDS011;8530;49.540;8.576;2022-08-14T09:55:17;5.53;;;3.80;;
16826;SDS011;8530;49.540;8.576;2022-08-14T09:57:45;4.57;;;3.53;;
16826;SDS011;8530;49.540;8.576;2022-08-14T10:00:12;6.20;;;4.88;;
16826;SDS011;8530;49.540;8.576;2022-08-14T10:02:53;5.00;;;4.50;;
16826;SDS011;8530;49.540;8.576;2022-08-14T10:05:28;4.93;;;4.05;;
16826;SDS011;8530;49.540;8.576;2022-08-14T10:07:58;5.72;;;4.13;;
16826;SDS011;8530;49.540;8.576;2022-08-14T10:10:26;4.68;;;4.28;;
16826;SDS011;8530;49.540;8.576;2022-08-14T10:12:54;5.57;;;4.28;;
16826;SDS011;8530;49.540;8.576;2022-08-14T10:15:22;9.30;;;4.30;;
16826;SDS011;8530;49.540;8.576;2022-08-14T10:18:03;4.72;;;4.30;;
16826;SDS011;8530;49.540;8.576;2022-08-14T10:20:33;6.13;;;4.07;;
16826;SDS011;8530;49.540;8.576;2022-08-14T10:23:08;4.05;;;3.75;;
16826;SDS011;8530;49.540;8.576;2022-08-14T10:25:40;7.05;;;4.93;;
16826;SDS011;8530;49.540;8.576;2022-08-14T10:28:08;7.43;;;4.53;;
16826;SDS011;8530;49.540;8.576;2022-08-14T10:30:39;9.02;;;4.32;;
16826;SDS011;8530;49.540;8.576;2022-08-14T10:33:23;4.97;;;4.53;;
16826;SDS011;8530;49.540;8.576;2022-08-14T10:35:51;4.82;;;3.97;;
16826;SDS011;8530;49.540;8.576;2022-08-14T10:38:27;5.63;;;4.10;;
16826;SDS011;8530;49.540;8.576;2022-08-14T10:41:08;5.70;;;4.05;;
16826;SDS011;8530;49.540;8.576;2022-08-14T10:43:37;4.15;;;3.75;;
16826;SDS011;8530;49.540;8.576;2022-08-14T10:46:10;3.95;;;3.55;;
16826;SDS011;8530;49.540;8.576;2022-08-14T10:48:40;4.43;;;4.03;;
16826;SDS011;8530;49.540;8.576;2022-08-14T10:51:07;3.38;;;2.90;;
16826;SDS011;8530;49.540;8.576;2022-08-14T10:53:34;7.75;;;5.45;;
16826;SDS011;8530;49.540;8.576;2022-08-14T10:56:08;4.55;;;4.15;;
16826;SDS011;8530;49.540;8.576;2022-08-14T10:58:39;7.05;;;4.15;;
16826;SDS011;8530;49.540;8.576;2022-08-14T11:01:06;5.13;;;4.35;;
16826;SDS011;8530;49.540;8.576;2022-08-14T11:03:37;4.13;;;3.78;;
16826;SDS011;8530;49.540;8.576;2022-08-14T11:06:10;6.25;;;4.68;;
16826;SDS011;8530;49.540;8.576;2022-08-14T11:08:42;4.40;;;4.00;;
16826;SDS011;8530;49.540;8.576;2022-08-14T11:11:09;10.90;;;3.95;;
16826;SDS011;8530;49.540;8.576;2022-08-14T11:13:36;6.40;;;3.90;;
16826;SDS011;8530;49.540;8.576;2022-08-14T11:16:08;8.90;;;3.90;;
16826;SDS011;8530;49.540;8.576;2022-08-14T11:18:36;4.15;;;3.60;;
16826;SDS011;8530;49.540;8.576;2022-08-14T11:21:05;3.53;;;3.22;;
16826;SDS011;8530;49.540;8.576;2022-08-14T11:23:33;3.33;;;3.03;;
16826;SDS011;8530;49.540;8.576;2022-08-14T11:26:03;3.60;;;3.30;;
16826;SDS011;8530;49.540;8.576;2022-08-14T11:28:31;5.18;;;3.97;;
16826;SDS011;8530;49.540;8.576;2022-08-14T11:31:02;5.22;;;3.22;;
16826;SDS011;8530;49.540;8.576;2022-08-14T11:33:33;4.38;;;3.47;;
16826;SDS011;8530;49.540;8.576;2022-08-14T11:36:04;3.58;;;3.28;;
16826;SDS011;8530;49.540;8.576;2022-08-14T11:38:35;3.53;;;3.22;;
16826;SDS011;8530;49.540;8.576;2022-08-14T11:41:02;3.53;;;3.13;;
16826;SDS011;8530;49.540;8.576;2022-08-14T11:43:29;3.35;;;3.05;;
16826;SDS011;8530;49.540;8.576;2022-08-14T11:45:56;3.08;;;2.78;;
16826;SDS011;8530;49.540;8.576;2022-08-14T11:48:25;4.03;;;3.45;;
16826;SDS011;8530;49.540;8.576;2022-08-14T11:50:52;5.68;;;3.88;;
16826;SDS011;8530;49.540;8.576;2022-08-14T11:53:21;3.65;;;3.35;;
16826;SDS011;8530;49.540;8.576;2022-08-14T11:55:54;5.25;;;4.28;;
16826;SDS011;8530;49.540;8.576;2022-08-14T11:58:25;3.28;;;2.97;;
16826;SDS011;8530;49.540;8.576;2022-08-14T12:00:56;8.60;;;3.35;;
16826;SDS011;8530;49.540;8.576;2022-08-14T12:03:35;3.83;;;3.42;;
16826;SDS011;8530;49.540;8.576;2022-08-14T12:06:03;7.50;;;3.38;;
16826;SDS011;8530;49.540;8.576;2022-08-14T12:08:33;5.57;;;3.80;;
16826;SDS011;8530;49.540;8.576;2022-08-14T12:11:00;4.03;;;3.60;;
16826;SDS011;8530;49.540;8.576;2022-08-14T12:13:28;8.02;;;3.80;;
16826;SDS011;8530;49.540;8.576;2022-08-14T12:15:57;4.80;;;3.05;;
16826;SDS011;8530;49.540;8.576;2022-08-14T12:18:29;4.93;;;3.25;;
16826;SDS011;8530;49.540;8.576;2022-08-14T12:21:08;3.70;;;3.40;;
16826;SDS011;8530;49.540;8.576;2022-08-14T12:23:38;4.00;;;3.60;;
16826;SDS011;8530;49.540;8.576;2022-08-14T12:26:05;5.03;;;3.40;;
16826;SDS011;8530;49.540;8.576;2022-08-14T12:28:34;6.20;;;3.33;;
16826;SDS011;8530;49.540;8.576;2022-08-14T12:31:10;7.90;;;4.60;;
16826;SDS011;8530;49.540;8.576;2022-08-14T12:33:40;4.15;;;3.70;;
16826;SDS011;8530;49.540;8.576;2022-08-14T12:36:08;4.05;;;3.40;;
16826;SDS011;8530;49.540;8.576;2022-08-14T12:38:46;4.20;;;3.80;;
16826;SDS011;8530;49.540;8.576;2022-08-14T12:41:15;3.92;;;3.53;;
16826;SDS011;8530;49.540;8.576;2022-08-14T12:43:45;9.63;;;4.22;;
16826;SDS011;8530;49.540;8.576;2022-08-14T12:46:25;5.15;;;4.18;;
16826;SDS011;8530;49.540;8.576;2022-08-14T12:48:53;3.53;;;3.20;;
16826;SDS011;8530;49.540;8.576;2022-08-14T12:51:20;4.65;;;3.97;;
16826;SDS011;8530;49.540;8.576;2022-08-14T12:53:51;3.70;;;3.40;;
16826;SDS011;8530;49.540;8.576;2022-08-14T12:56:19;3.95;;;3.50;;
16826;SDS011;8530;49.540;8.576;2022-08-14T12:58:49;4.53;;;3.35;;
16826;SDS011;8530;49.540;8.576;2022-08-14T13:01:17;4.45;;;3.70;;
16826;SDS011;8530;49.540;8.576;2022-08-14T13:03:45;4.85;;;4.13;;
16826;SDS011;8530;49.540;8.576;2022-08-14T13:06:13;5.90;;;3.90;;
16826;SDS011;8530;49.540;8.576;2022-08-14T13:08:42;4.93;;;4.53;;
16826;SDS011;8530;49.540;8.576;2022-08-14T13:11:12;3.88;;;3.47;;
16826;SDS011;8530;49.540;8.576;2022-08-14T13:13:42;3.85;;;3.45;;
16826;SDS011;8530;49.540;8.576;2022-08-14T13:16:10;5.85;;;4.18;;
16826;SDS011;8530;49.540;8.576;2022-08-14T13:18:41;4.32;;;3.92;;
16826;SDS011;8530;49.540;8.576;2022-08-14T13:21:10;3.67;;;3.38;;
16826;SDS011;8530;49.540;8.576;2022-08-14T13:23:39;4.22;;;3.83;;
16826;SDS011;8530;49.540;8.576;2022-08-14T13:26:15;3.83;;;3.53;;
16826;SDS011;8530;49.540;8.576;2022-08-14T13:28:42;4.60;;;4.00;;
16826;SDS011;8530;49.540;8.576;2022-08-14T13:31:09;4.70;;;3.90;;
16826;SDS011;8530;49.540;8.576;2022-08-14T13:33:39;4.53;;;4.07;;
16826;SDS011;8530;49.540;8.576;2022-08-14T13:36:07;6.20;;;3.60;;
16826;SDS011;8530;49.540;8.576;2022-08-14T13:38:36;5.00;;;4.03;;
16826;SDS011;8530;49.540;8.576;2022-08-14T13:41:06;5.97;;;3.75;;
16826;SDS011;8530;49.540;8.576;2022-08-14T13:43:35;3.55;;;3.25;;
16826;SDS011;8530;49.540;8.576;2022-08-14T13:46:03;4.57;;;3.28;;
16826;SDS011;8530;49.540;8.576;2022-08-14T13:48:30;3.88;;;3.15;;
16826;SDS011;8530;49.540;8.576;2022-08-14T13:50:57;4.07;;;3.35;;
16826;SDS011;8530;49.540;8.576;2022-08-14T13:53:25;3.90;;;3.50;;
16826;SDS011;8530;49.540;8.576;2022-08-14T13:55:53;3.60;;;3.30;;
16826;SDS011;8530;49.540;8.576;2022-08-14T13:58:21;4.53;;;3.47;;
16826;SDS011;8530;49.540;8.576;2022-08-14T14:00:51;5.13;;;3.58;;
16826;SDS011;8530;49.540;8.576;2022-08-14T14:03:19;4.32;;;3.45;;
16826;SDS011;8530;49.540;8.576;2022-08-14T14:05:48;4.60;;;3.45;;
16826;SDS011;8530;49.540;8.576;2022-08-14T14:08:16;3.40;;;3.10;;
16826;SDS011;8530;49.540;8.576;2022-08-14T14:10:46;3.88;;;3.50;;
16826;SDS011;8530;49.540;8.576;2022-08-14T14:13:13;4.03;;;3.50;;
16826;SDS011;8530;49.540;8.576;2022-08-14T14:15:42;6.63;;;2.90;;
16826;SDS011;8530;49.540;8.576;2022-08-14T14:18:10;3.80;;;3.33;;
16826;SDS011;8530;49.540;8.576;2022-08-14T14:20:40;4.28;;;3.88;;
16826;SDS011;8530;49.540;8.576;2022-08-14T14:23:10;5.63;;;3.60;;
16826;SDS011;8530;49.540;8.576;2022-08-14T14:25:39;3.45;;;3.03;;
16826;SDS011;8530;49.540;8.576;2022-08-14T14:28:07;3.65;;;3.35;;
16826;SDS011;8530;49.540;8.576;2022-08-14T14:30:35;3.50;;;3.17;;
16826;SDS011;8530;49.540;8.576;2022-08-14T14:33:06;7.03;;;3.28;;
16826;SDS011;8530;49.540;8.576;2022-08-14T14:35:38;4.85;;;3.03;;
16826;SDS011;8530;49.540;8.576;2022-08-14T14:38:11;4.57;;;3.90;;
16826;SDS011;8530;49.540;8.576;2022-08-14T14:40:41;3.88;;;3.50;;
16826;SDS011;8530;49.540;8.576;2022-08-14T14:43:11;3.47;;;3.17;;
16826;SDS011;8530;49.540;8.576;2022-08-14T14:45:39;3.83;;;3.20;;
16826;SDS011;8530;49.540;8.576;2022-08-14T14:48:09;3.88;;;3.10;;
16826;SDS011;8530;49.540;8.576;2022-08-14T14:50:38;3.67;;;3.13;;
16826;SDS011;8530;49.540;8.576;2022-08-14T14:53:05;5.57;;;3.00;;
16826;SDS011;8530;49.540;8.576;2022-08-14T14:55:34;3.20;;;2.90;;
16826;SDS011;8530;49.540;8.576;2022-08-14T14:58:02;4.70;;;3.22;;
16826;SDS011;8530;49.540;8.576;2022-08-14T15:00:31;4.72;;;3.67;;
16826;SDS011;8530;49.540;8.576;2022-08-14T15:02:57;5.28;;;3.38;;
16826;SDS011;8530;49.540;8.576;2022-08-14T15:05:24;3.50;;;2.78;;
16826;SDS011;8530;49.540;8.576;2022-08-14T15:07:52;3.85;;;3.55;;
16826;SDS011;8530;49.540;8.576;2022-08-14T15:10:21;6.65;;;3.65;;